Time;durP1;ratioP1;P1;durP2;ratioP2;P2;SDS_P1;SDS_P2;PMS_P1;PMS_P2;Temp;Humidity;BMP_temperature;BMP_pressure;BME280_temperature;BME280_humidity;BME280_pressure;Samples;Min_cycle;Max_cycle;Signal;HPM_P1;HPM_P2
2022/10/07 00:02:44;;;;;;;26.70;15.73;;;8.60;99.90;;;;;;10397562;28;20045;-77
2022/10/07 00:07:44;;;;;;;36.67;18.87;;;8.60;99.90;;;;;;10405394;28;20496;-79
2022/10/07 00:12:45;;;;;;;27.73;17.77;;;8.50;99.90;;;;;;10407158;28;20040;-80
2022/10/07 00:17:45;;;;;;;32.40;18.67;;;8.50;99.90;;;;;;10398251;28;20037;-79
2022/10/07 00:22:46;;;;;;;57.73;19.93;;;8.50;99.90;;;;;;10400629;28;20477;-80
2022/10/07 00:27:49;;;;;;;27.60;16.60;;;8.50;99.90;;;;;;10401323;28;20489;-82
2022/10/07 00:32:49;;;;;;;23.83;15.77;;;8.50;99.90;;;;;;10402848;28;20401;-79
2022/10/07 00:37:50;;;;;;;30.00;14.77;;;8.40;99.90;;;;;;10396272;28;20075;-81
2022/10/07 00:42:50;;;;;;;17.80;10.57;;;8.40;99.90;;;;;;10405386;28;20597;-80
2022/10/07 00:47:51;;;;;;;22.50;11.57;;;8.30;99.90;;;;;;10401928;28;20124;-79
2022/10/07 00:52:58;;;;;;;16.37;10.17;;;8.20;99.90;;;;;;10403084;28;20030;-82
2022/10/07 00:58:05;;;;;;;19.23;10.57;;;8.10;99.90;;;;;;10401500;28;20044;-79
2022/10/07 01:03:05;;;;;;;26.37;12.73;;;7.90;99.90;;;;;;10404094;28;20120;-79
2022/10/07 01:08:06;;;;;;;21.87;12.33;;;7.80;99.90;;;;;;10404082;28;20029;-81
2022/10/07 01:13:30;;;;;;;24.57;13.00;;;7.70;99.90;;;;;;10402526;28;20029;-82
2022/10/07 01:18:44;;;;;;;32.73;17.97;;;7.60;99.90;;;;;;10392168;28;20128;-79
2022/10/07 01:24:15;;;;;;;26.77;14.07;;;7.40;99.90;;;;;;10412392;28;20041;-82
2022/10/07 01:29:21;;;;;;;24.47;13.17;;;7.20;99.90;;;;;;10401649;28;20061;-79
2022/10/07 01:34:25;;;;;;;23.27;12.33;;;7.20;99.90;;;;;;10409612;28;20145;-79
2022/10/07 01:39:32;;;;;;;18.83;11.40;;;7.20;99.90;;;;;;10411672;28;20056;-79
2022/10/07 01:44:34;;;;;;;23.33;12.90;;;7.30;99.90;;;;;;10409268;28;20041;-83
2022/10/07 01:49:36;;;;;;;21.57;12.20;;;7.20;99.90;;;;;;10397998;28;20112;-79
2022/10/07 01:54:46;;;;;;;32.07;16.50;;;7.20;99.90;;;;;;10410144;28;20036;-79
2022/10/07 02:00:00;;;;;;;25.03;14.50;;;7.10;99.90;;;;;;10406653;28;20030;-79
2022/10/07 02:05:08;;;;;;;44.63;17.83;;;7.10;99.90;;;;;;10408493;28;20041;-80
2022/10/07 02:10:20;;;;;;;47.50;18.90;;;7.10;99.90;;;;;;10410574;28;20021;-79
2022/10/07 02:15:45;;;;;;;50.70;19.03;;;7.10;99.90;;;;;;10407063;28;20033;-79
2022/10/07 02:20:50;;;;;;;28.57;16.73;;;7.10;99.90;;;;;;10410043;28;20072;-82
2022/10/07 02:25:54;;;;;;;42.10;18.27;;;7.10;99.90;;;;;;10409866;28;20045;-82
2022/10/07 02:30:59;;;;;;;34.20;16.90;;;7.00;99.90;;;;;;10403608;28;20117;-81
2022/10/07 02:36:03;;;;;;;43.73;22.43;;;6.90;99.90;;;;;;10406167;28;20497;-79
2022/10/07 02:41:30;;;;;;;37.10;19.20;;;6.80;99.90;;;;;;10409249;28;20517;-79
2022/10/07 02:46:37;;;;;;;28.80;16.70;;;6.80;99.90;;;;;;10399966;28;20029;-81
2022/10/07 02:52:04;;;;;;;27.97;17.00;;;6.80;99.90;;;;;;10409549;28;20067;-79
2022/10/07 02:57:06;;;;;;;38.60;23.60;;;6.80;99.90;;;;;;10408943;28;20140;-80
2022/10/07 03:02:14;;;;;;;40.83;20.30;;;6.80;99.90;;;;;;10396697;28;20420;-83
2022/10/07 03:07:22;;;;;;;35.37;20.80;;;6.80;99.90;;;;;;10405028;28;20117;-79
2022/10/07 03:12:22;;;;;;;28.67;15.60;;;6.90;99.90;;;;;;10408149;28;20500;-80
2022/10/07 03:17:23;;;;;;;30.90;18.87;;;6.80;99.90;;;;;;10399433;28;20057;-79
2022/10/07 03:22:23;;;;;;;34.50;20.20;;;6.80;99.90;;;;;;10407785;28;20058;-79
2022/10/07 03:27:24;;;;;;;26.97;15.07;;;6.70;99.90;;;;;;10408077;28;20029;-82
2022/10/07 03:32:31;;;;;;;32.20;17.70;;;6.70;99.90;;;;;;10401796;28;20402;-81
2022/10/07 03:37:32;;;;;;;25.50;15.00;;;6.60;99.90;;;;;;10393832;28;20104;-80
2022/10/07 03:42:33;;;;;;;29.00;17.83;;;6.60;99.90;;;;;;10400958;28;20037;-79
2022/10/07 03:47:34;;;;;;;28.97;17.77;;;6.60;99.90;;;;;;10390695;28;20033;-79
2022/10/07 03:52:35;;;;;;;31.73;18.27;;;6.50;99.90;;;;;;10397849;28;20076;-80
2022/10/07 03:57:56;;;;;;;37.60;20.83;;;6.50;99.90;;;;;;10396070;28;20025;-81
2022/10/07 04:02:57;;;;;;;34.87;17.60;;;6.40;99.90;;;;;;10397341;28;20041;-81
2022/10/07 04:07:57;;;;;;;30.90;15.20;;;6.30;99.90;;;;;;10398654;28;20034;-80
2022/10/07 04:12:58;;;;;;;25.33;14.23;;;6.20;99.90;;;;;;10391233;28;20052;-78
2022/10/07 04:17:58;;;;;;;26.53;15.43;;;6.10;99.90;;;;;;10385145;28;20033;-83
2022/10/07 04:22:59;;;;;;;23.87;13.27;;;6.10;99.90;;;;;;10401755;28;20041;-79
2022/10/07 04:28:05;;;;;;;26.93;13.93;;;6.10;99.90;;;;;;10403167;28;20052;-80
2022/10/07 04:33:07;;;;;;;42.20;17.77;;;6.00;99.90;;;;;;10402687;28;20077;-80
2022/10/07 04:38:09;;;;;;;58.33;20.20;;;5.90;99.90;;;;;;10405406;28;20056;-80
2022/10/07 04:43:18;;;;;;;40.53;20.47;;;5.70;99.90;;;;;;10404837;28;20100;-80
2022/10/07 04:48:21;;;;;;;39.83;19.30;;;5.70;99.90;;;;;;10403911;28;20048;-85
2022/10/07 04:53:22;;;;;;;41.00;20.80;;;5.60;99.90;;;;;;10404995;28;20092;-81
2022/10/07 04:58:22;;;;;;;36.30;19.73;;;5.60;99.90;;;;;;10404850;28;20133;-80
2022/10/07 05:03:25;;;;;;;41.07;21.90;;;5.50;99.90;;;;;;10404689;28;20160;-80
2022/10/07 05:08:26;;;;;;;41.33;19.83;;;5.50;99.90;;;;;;10402917;28;20077;-80
2022/10/07 05:13:27;;;;;;;41.47;19.23;;;5.60;99.90;;;;;;10404880;28;20029;-79
2022/10/07 05:18:29;;;;;;;33.07;17.57;;;5.60;99.90;;;;;;10404203;28;20109;-80
2022/10/07 05:23:30;;;;;;;32.10;15.60;;;5.70;99.90;;;;;;10404569;28;20067;-79
2022/10/07 05:28:31;;;;;;;30.97;15.03;;;5.80;99.90;;;;;;10404316;28;20036;-80
2022/10/07 05:33:32;;;;;;;25.83;13.53;;;6.00;99.90;;;;;;10402841;28;20060;-82
2022/10/07 05:38:33;;;;;;;28.20;13.80;;;6.20;99.90;;;;;;10402755;28;20021;-80
2022/10/07 05:43:36;;;;;;;29.43;14.43;;;6.30;99.90;;;;;;10403918;28;20034;-80
2022/10/07 05:48:38;;;;;;;31.33;15.90;;;6.50;99.90;;;;;;10411771;28;20476;-81
2022/10/07 05:53:40;;;;;;;41.37;20.27;;;6.50;99.90;;;;;;10411124;28;20581;-80
2022/10/07 05:58:41;;;;;;;38.00;21.13;;;6.60;99.90;;;;;;10412167;28;20033;-85
2022/10/07 06:03:46;;;;;;;45.87;24.13;;;6.70;99.90;;;;;;10409877;28;20099;-82
2022/10/07 06:08:47;;;;;;;45.90;24.60;;;6.80;99.90;;;;;;10409606;28;20025;-80
2022/10/07 06:13:53;;;;;;;41.37;23.67;;;6.90;99.90;;;;;;10411339;28;20548;-81
2022/10/07 06:18:54;;;;;;;40.00;23.27;;;7.10;99.90;;;;;;10410326;28;20503;-81
2022/10/07 06:23:56;;;;;;;44.83;24.87;;;7.30;99.90;;;;;;10410548;28;20037;-79
2022/10/07 06:28:57;;;;;;;50.20;28.13;;;7.50;99.90;;;;;;10410310;28;20034;-82
2022/10/07 06:33:57;;;;;;;50.20;28.33;;;7.70;99.90;;;;;;10408923;28;20057;-80
2022/10/07 06:38:58;;;;;;;47.47;26.20;;;8.00;99.90;;;;;;10410161;28;20026;-82
2022/10/07 06:43:59;;;;;;;43.47;25.50;;;8.40;99.90;;;;;;10409250;28;20367;-82
2022/10/07 06:49:00;;;;;;;38.60;23.70;;;8.70;99.90;;;;;;10409758;28;20101;-83
2022/10/07 06:54:00;;;;;;;38.77;23.23;;;9.00;99.90;;;;;;10408921;28;20106;-81
2022/10/07 06:59:02;;;;;;;39.77;22.47;;;9.30;99.90;;;;;;10408708;28;20026;-80
2022/10/07 07:04:02;;;;;;;33.03;22.07;;;9.60;99.90;;;;;;10407684;28;20098;-80
2022/10/07 07:09:04;;;;;;;37.38;22.27;;;9.90;99.90;;;;;;10406959;28;20068;-81
2022/10/07 07:14:10;;;;;;;32.73;21.23;;;10.20;99.90;;;;;;10408393;28;20037;-82
2022/10/07 07:19:11;;;;;;;29.02;19.02;;;10.50;99.90;;;;;;10407936;28;20036;-85
2022/10/07 07:24:12;;;;;;;31.80;17.33;;;10.80;99.90;;;;;;10408165;28;20052;-81
2022/10/07 07:29:13;;;;;;;25.08;13.90;;;11.20;99.90;;;;;;10407718;28;20037;-81
2022/10/07 07:34:14;;;;;;;22.05;13.45;;;11.60;99.90;;;;;;10405852;28;20156;-81
2022/10/07 07:39:16;;;;;;;24.55;12.98;;;11.90;99.90;;;;;;10407292;28;20477;-80
2022/10/07 07:44:17;;;;;;;16.95;10.52;;;12.20;99.90;;;;;;10406852;28;20033;-82
2022/10/07 07:49:19;;;;;;;18.52;10.55;;;12.60;99.90;;;;;;10406912;28;20056;-80
2022/10/07 07:54:20;;;;;;;28.40;8.65;;;12.90;99.90;;;;;;10407157;28;20032;-81
2022/10/07 07:59:21;;;;;;;12.32;7.55;;;13.30;99.90;;;;;;10406331;28;20032;-82
2022/10/07 08:04:22;;;;;;;13.32;7.38;;;13.70;99.90;;;;;;10406832;28;20038;-80
2022/10/07 08:09:23;;;;;;;13.45;6.55;;;14.10;99.90;;;;;;10405162;28;20036;-82
2022/10/07 08:14:23;;;;;;;11.73;6.82;;;14.30;99.90;;;;;;10406244;28;20420;-81
2022/10/07 08:19:31;;;;;;;12.07;7.57;;;14.50;99.90;;;;;;10404369;28;20112;-81
2022/10/07 08:24:32;;;;;;;15.05;7.68;;;14.70;99.90;;;;;;10406228;28;20124;-80
2022/10/07 08:29:32;;;;;;;14.88;7.82;;;14.90;99.90;;;;;;10405711;28;20427;-82
2022/10/07 08:34:33;;;;;;;10.02;6.95;;;15.20;99.90;;;;;;10404474;28;20168;-82
2022/10/07 08:39:34;;;;;;;15.25;8.10;;;15.40;99.90;;;;;;10405813;28;20029;-81
2022/10/07 08:44:45;;;;;;;12.30;7.03;;;15.70;99.90;;;;;;10403485;28;20067;-80
2022/10/07 08:50:08;;;;;;;11.77;7.30;;;16.00;99.90;;;;;;10406053;28;20040;-83
2022/10/07 08:55:33;;;;;;;15.23;7.75;;;16.30;99.90;;;;;;10403288;28;20116;-80
2022/10/07 09:00:52;;;;;;;13.63;6.87;;;16.60;99.90;;;;;;10406337;28;20060;-84
2022/10/07 09:05:54;;;;;;;18.75;7.50;;;16.80;99.90;;;;;;10404685;28;20021;-80
2022/10/07 09:11:14;;;;;;;10.10;6.93;;;17.00;99.90;;;;;;10404494;28;20030;-78
2022/10/07 09:16:17;;;;;;;13.27;7.18;;;17.30;99.90;;;;;;10404816;28;20057;-80
2022/10/07 09:21:44;;;;;;;12.27;7.13;;;17.50;99.90;;;;;;10409850;28;20111;-79
2022/10/07 09:26:45;;;;;;;13.70;7.85;;;17.70;99.90;;;;;;10409988;28;20677;-81
2022/10/07 09:31:48;;;;;;;13.65;6.97;;;17.90;99.90;;;;;;10413903;28;20033;-80
2022/10/07 09:37:08;;;;;;;12.23;7.28;;;18.10;99.90;;;;;;10410762;28;20065;-80
2022/10/07 09:42:22;;;;;;;13.73;7.32;;;18.30;99.90;;;;;;10412315;28;20072;-81
2022/10/07 09:47:26;;;;;;;12.43;7.60;;;18.50;99.90;;;;;;10412140;28;20368;-80
2022/10/07 09:52:28;;;;;;;10.27;6.72;;;18.60;99.90;;;;;;10412240;28;20025;-80
2022/10/07 09:57:34;;;;;;;11.82;6.45;;;18.70;99.90;;;;;;10410244;28;20075;-80
2022/10/07 10:02:35;;;;;;;11.40;6.20;;;18.90;99.90;;;;;;10411502;28;20041;-80
2022/10/07 10:07:36;;;;;;;9.88;6.90;;;19.10;99.90;;;;;;10411034;28;20568;-82
2022/10/07 10:12:55;;;;;;;10.68;6.63;;;19.20;99.90;;;;;;10396716;28;20021;-81
2022/10/07 10:17:56;;;;;;;10.05;7.07;;;19.40;99.90;;;;;;10411042;28;20049;-80
2022/10/07 10:22:59;;;;;;;10.13;6.82;;;19.30;99.90;;;;;;10410106;28;20033;-80
2022/10/07 10:28:53;;;;;;;10.05;6.45;;;19.40;99.90;;;;;;10410404;28;20377;-81
2022/10/07 10:34:11;;;;;;;13.60;7.75;;;19.80;99.90;;;;;;10383170;28;20139;-82
2022/10/07 10:39:49;;;;;;;7.65;5.57;;;20.00;99.90;;;;;;10410754;28;20397;-80
2022/10/07 10:45:14;;;;;;;9.43;5.70;;;20.10;99.90;;;;;;10409500;28;20099;-81
2022/10/07 10:50:45;;;;;;;8.55;5.32;;;20.20;99.90;;;;;;10410172;28;20108;-80
2022/10/07 10:55:59;;;;;;;8.05;5.97;;;20.30;99.90;;;;;;10408970;28;20079;-81
2022/10/07 11:01:22;;;;;;;9.65;5.72;;;20.40;99.90;;;;;;10409053;28;20029;-80
2022/10/07 11:06:27;;;;;;;10.38;5.95;;;20.50;99.90;;;;;;10408643;28;20017;-81
2022/10/07 11:11:28;;;;;;;8.00;5.10;;;20.50;98.50;;;;;;10407264;28;20038;-80
2022/10/07 11:16:37;;;;;;;8.73;4.28;;;20.40;97.70;;;;;;10408648;28;20034;-80
2022/10/07 11:21:41;;;;;;;8.30;4.53;;;20.60;98.10;;;;;;10408250;28;20046;-80
2022/10/07 11:26:52;;;;;;;7.18;4.30;;;20.80;97.60;;;;;;10407750;28;20465;-80
2022/10/07 11:32:05;;;;;;;7.88;4.40;;;20.80;97.90;;;;;;10407937;28;20022;-80
2022/10/07 11:37:18;;;;;;;7.18;4.30;;;20.90;95.30;;;;;;10407673;28;20045;-81
2022/10/07 11:42:24;;;;;;;13.32;5.70;;;20.90;96.10;;;;;;10406945;28;20029;-80
2022/10/07 11:47:35;;;;;;;11.93;5.53;;;20.40;95.90;;;;;;10407263;28;20076;-80
2022/10/07 11:52:42;;;;;;;7.47;4.20;;;20.10;97.10;;;;;;10405623;28;20053;-80
2022/10/07 11:57:53;;;;;;;10.30;4.70;;;20.60;96.60;;;;;;10406861;28;20025;-80
2022/10/07 12:02:55;;;;;;;7.90;4.57;;;20.90;96.60;;;;;;10406675;28;20037;-80
2022/10/07 12:07:59;;;;;;;6.95;3.97;;;21.10;96.30;;;;;;10405106;28;20029;-81
2022/10/07 12:13:20;;;;;;;12.23;4.47;;;21.30;94.60;;;;;;10406684;28;20087;-80
2022/10/07 12:18:26;;;;;;;8.02;4.28;;;21.50;94.30;;;;;;10379225;28;20397;-80
2022/10/07 12:23:29;;;;;;;7.60;3.65;;;21.50;93.60;;;;;;10405528;28;20056;-80
2022/10/07 12:28:40;;;;;;;8.82;4.63;;;21.70;93.50;;;;;;10406129;28;20466;-80
2022/10/07 12:33:44;;;;;;;8.85;4.82;;;21.60;92.50;;;;;;10403869;28;20822;-80
2022/10/07 12:38:57;;;;;;;9.85;4.40;;;21.70;92.60;;;;;;10405438;28;20020;-80
2022/10/07 12:43:59;;;;;;;5.05;3.58;;;21.80;92.00;;;;;;10405483;28;20041;-80
2022/10/07 12:49:03;;;;;;;10.52;5.50;;;21.80;91.20;;;;;;10404950;28;20040;-80
2022/10/07 12:54:19;;;;;;;13.63;5.35;;;21.80;91.10;;;;;;10398699;28;20030;-79
2022/10/07 12:59:46;;;;;;;7.78;4.25;;;21.90;91.70;;;;;;10391028;28;20026;-80
2022/10/07 13:05:14;;;;;;;7.97;3.75;;;21.90;91.20;;;;;;10404716;28;20057;-80
2022/10/07 13:10:40;;;;;;;6.28;2.90;;;21.90;91.00;;;;;;10393043;28;20751;-82
2022/10/07 13:16:06;;;;;;;6.00;3.53;;;21.80;90.40;;;;;;10387304;28;20463;-81
2022/10/07 13:21:10;;;;;;;;;;;21.80;90.60;;;;;;10373483;28;20401;-80
2022/10/07 13:26:11;;;;;;;6.72;3.47;;;21.70;90.80;;;;;;10394713;28;19955;-80
2022/10/07 13:31:21;;;;;;;6.97;3.58;;;21.60;90.60;;;;;;10394547;28;20022;-80
2022/10/07 13:36:27;;;;;;;5.82;2.92;;;21.50;90.00;;;;;;10387443;28;20136;-80
2022/10/07 13:41:29;;;;;;;9.57;5.07;;;21.50;90.50;;;;;;10404545;28;20037;-78
2022/10/07 13:46:32;;;;;;;6.93;3.53;;;21.50;90.80;;;;;;10411317;28;20043;-81
2022/10/07 13:51:42;;;;;;;8.13;4.07;;;21.40;90.80;;;;;;10398349;28;20035;-80
2022/10/07 13:56:44;;;;;;;6.38;3.75;;;21.30;91.10;;;;;;10398419;28;20496;-79
2022/10/07 14:01:55;;;;;;;6.25;4.80;;;21.30;92.00;;;;;;10388482;28;20116;-81
2022/10/07 14:06:56;;;;;;;4.93;3.38;;;21.30;91.60;;;;;;10402829;28;20112;-80
2022/10/07 14:12:11;;;;;;;7.03;3.83;;;21.10;91.20;;;;;;10400448;28;20029;-80
2022/10/07 14:17:43;;;;;;;7.25;3.40;;;21.10;91.70;;;;;;10403332;28;20052;-79
2022/10/07 14:22:55;;;;;;;7.55;4.45;;;21.00;91.60;;;;;;10402610;28;20038;-79
2022/10/07 14:27:56;;;;;;;7.22;5.55;;;20.80;92.10;;;;;;10408065;28;20055;-78
2022/10/07 14:38:31;;;;;;;8.73;4.57;;;20.50;92.20;;;;;;10404496;28;20408;-81
2022/10/07 14:43:34;;;;;;;36.97;24.95;;;20.40;93.10;;;;;;10403624;28;20037;-81
2022/10/07 14:48:35;;;;;;;7.68;5.72;;;20.40;93.20;;;;;;10407185;28;20053;-81
2022/10/07 14:53:36;;;;;;;7.00;4.45;;;20.20;93.10;;;;;;10400128;28;20112;-81
2022/10/07 14:58:37;;;;;;;7.18;4.68;;;20.10;93.80;;;;;;10399018;28;20655;-81
2022/10/07 15:03:37;;;;;;;10.82;6.82;;;20.00;93.80;;;;;;10398261;28;20041;-82
2022/10/07 15:08:38;;;;;;;9.90;5.75;;;19.80;93.40;;;;;;10398686;28;20057;-80
2022/10/07 15:13:38;;;;;;;11.93;5.53;;;19.60;94.60;;;;;;10404453;28;20037;-83
2022/10/07 15:18:39;;;;;;;10.30;5.88;;;19.50;95.30;;;;;;10396005;28;20500;-80
2022/10/07 15:23:39;;;;;;;13.35;6.90;;;19.30;96.40;;;;;;10404760;28;20151;-80
2022/10/07 15:28:40;;;;;;;16.33;8.32;;;18.90;97.50;;;;;;10407627;28;20033;-80
2022/10/07 15:33:41;;;;;;;14.80;7.93;;;18.60;98.70;;;;;;10386654;28;20053;-79
2022/10/07 15:38:42;;;;;;;30.38;14.60;;;18.30;99.90;;;;;;10385730;28;20040;-81
2022/10/07 15:43:42;;;;;;;39.28;18.95;;;18.00;99.90;;;;;;10400856;28;20477;-80
2022/10/07 15:48:44;;;;;;;70.60;35.67;;;17.80;99.90;;;;;;10401046;28;20047;-78
2022/10/07 15:53:44;;;;;;;34.70;17.13;;;17.50;99.90;;;;;;10388326;28;20106;-80
2022/10/07 15:58:45;;;;;;;18.35;11.20;;;17.10;99.90;;;;;;10403095;28;20116;-81
2022/10/07 16:03:47;;;;;;;17.23;11.10;;;16.80;99.90;;;;;;10397640;28;20132;-80
2022/10/07 16:08:49;;;;;;;16.23;10.50;;;16.50;99.90;;;;;;10399711;28;20116;-80
2022/10/07 16:13:50;;;;;;;24.55;11.80;;;16.20;99.90;;;;;;10404099;28;20448;-80
2022/10/07 16:18:53;;;;;;;22.05;12.20;;;15.90;99.90;;;;;;10397700;28;20034;-81
2022/10/07 16:23:57;;;;;;;27.08;13.57;;;15.60;99.90;;;;;;10396473;28;20034;-80
2022/10/07 16:34:18;;;;;;;34.17;20.95;;;15.10;99.90;;;;;;10394686;28;20057;-81
2022/10/07 16:39:26;;;;;;;34.15;20.20;;;14.90;99.90;;;;;;10402793;28;20420;-80
2022/10/07 16:44:26;;;;;;;26.40;17.23;;;14.80;99.90;;;;;;10404605;28;20551;-80
2022/10/07 16:49:29;;;;;;;26.85;16.77;;;14.70;99.90;;;;;;10396952;28;20067;-80
2022/10/07 16:54:30;;;;;;;34.05;18.00;;;14.70;99.90;;;;;;10388146;28;20034;-80
2022/10/07 16:59:31;;;;;;;25.98;17.83;;;14.50;99.90;;;;;;10392130;28;20078;-79
2022/10/07 17:04:32;;;;;;;34.33;20.05;;;14.40;99.90;;;;;;10384809;28;20045;-81
2022/10/07 17:09:32;;;;;;;30.25;18.60;;;14.40;99.90;;;;;;10402542;28;20026;-79
2022/10/07 17:14:33;;;;;;;30.70;19.23;;;14.20;99.90;;;;;;10391985;28;20489;-79
2022/10/07 17:19:33;;;;;;;35.65;22.60;;;14.10;99.90;;;;;;10391818;28;20086;-80
2022/10/07 17:24:34;;;;;;;35.45;22.17;;;14.10;99.90;;;;;;10402236;28;20470;-78
2022/10/07 17:29:37;;;;;;;35.97;23.60;;;14.00;99.90;;;;;;10391255;28;20487;-79
2022/10/07 17:34:37;;;;;;;36.80;21.13;;;13.90;99.90;;;;;;10392807;28;20103;-79
2022/10/07 17:39:38;;;;;;;34.53;21.13;;;13.80;99.90;;;;;;10391243;28;20091;-81
2022/10/07 17:44:38;;;;;;;34.58;20.13;;;13.90;99.90;;;;;;10392590;28;20393;-79
2022/10/07 17:49:39;;;;;;;37.42;22.75;;;13.80;99.90;;;;;;10394249;28;20041;-79
2022/10/07 17:54:40;;;;;;;39.25;23.40;;;13.80;99.90;;;;;;10403304;28;20033;-79
2022/10/07 17:59:40;;;;;;;42.90;24.50;;;13.80;99.90;;;;;;10386121;28;20116;-79
2022/10/07 18:04:41;;;;;;;46.65;26.42;;;13.60;99.90;;;;;;10400860;28;20568;-79
2022/10/07 18:09:41;;;;;;;49.72;29.23;;;13.70;99.90;;;;;;10408671;28;20036;-78
2022/10/07 18:20:05;;;;;;;48.47;26.80;;;13.50;99.90;;;;;;10386264;28;20045;-79
2022/10/07 18:25:05;;;;;;;51.28;28.27;;;13.50;99.90;;;;;;10406573;28;20030;-79
2022/10/07 18:30:07;;;;;;;55.20;32.40;;;13.40;99.90;;;;;;10399084;28;20076;-79
2022/10/07 18:35:08;;;;;;;50.22;31.23;;;13.30;99.90;;;;;;10402306;28;20132;-80
2022/10/07 18:40:09;;;;;;;45.08;26.67;;;13.20;99.90;;;;;;10405615;28;20706;-81
2022/10/07 18:45:09;;;;;;;39.25;24.75;;;13.10;99.90;;;;;;10403034;28;20041;-80
2022/10/07 18:50:10;;;;;;;38.05;23.33;;;13.10;99.90;;;;;;10400225;28;20496;-81
2022/10/07 18:55:10;;;;;;;47.28;26.13;;;13.00;99.90;;;;;;10405759;28;20556;-82
2022/10/07 19:00:12;;;;;;;42.63;24.70;;;12.90;99.90;;;;;;10406510;28;20043;-81
2022/10/07 19:05:12;;;;;;;36.67;21.10;;;12.90;99.90;;;;;;10404043;28;20045;-81
2022/10/07 19:10:13;;;;;;;34.35;19.50;;;12.90;99.90;;;;;;10408363;28;20385;-81
2022/10/07 19:15:14;;;;;;;35.15;21.45;;;12.90;99.90;;;;;;10400409;28;20104;-81
2022/10/07 19:20:16;;;;;;;45.70;25.90;;;12.80;99.90;;;;;;10407582;28;20401;-82
2022/10/07 19:30:36;;;;;;;54.53;31.10;;;12.70;99.90;;;;;;10401480;28;20037;-81
2022/10/07 19:35:37;;;;;;;68.95;38.30;;;12.70;99.90;;;;;;10390958;28;20083;-81
2022/10/07 19:40:43;;;;;;;64.28;35.80;;;12.70;99.90;;;;;;10406072;28;20091;-79
2022/10/07 19:45:44;;;;;;;51.95;31.73;;;12.50;99.90;;;;;;10399772;28;20079;-80
2022/10/07 19:50:45;;;;;;;49.65;30.35;;;12.40;99.90;;;;;;10392768;28;20025;-80
2022/10/07 19:55:46;;;;;;;54.90;31.75;;;12.30;99.90;;;;;;10405878;28;20044;-80
2022/10/07 20:00:46;;;;;;;51.45;30.95;;;12.30;99.90;;;;;;10402360;28;20083;-78
2022/10/07 20:05:47;;;;;;;47.92;28.35;;;12.40;99.90;;;;;;10390637;28;20029;-80
2022/10/07 20:10:48;;;;;;;48.50;27.60;;;12.40;99.90;;;;;;10402968;28;20444;-79
2022/10/07 20:15:49;;;;;;;50.65;29.67;;;12.40;99.90;;;;;;10397100;28;20501;-80
2022/10/07 20:20:50;;;;;;;46.20;28.67;;;12.40;99.90;;;;;;10395215;28;20045;-78
2022/10/07 20:25:50;;;;;;;41.33;27.75;;;12.40;99.90;;;;;;10393593;28;20033;-79
2022/10/07 20:30:51;;;;;;;45.60;28.50;;;12.40;99.90;;;;;;10401424;28;20038;-80
2022/10/07 20:35:51;;;;;;;47.33;28.55;;;12.40;99.90;;;;;;10398829;28;20061;-79
2022/10/07 20:46:12;;;;;;;37.97;24.98;;;12.30;99.90;;;;;;10398192;28;20132;-79
2022/10/07 20:51:15;;;;;;;43.00;25.95;;;12.20;99.90;;;;;;10401082;28;20029;-78
2022/10/07 20:56:17;;;;;;;39.63;23.60;;;12.20;99.90;;;;;;10402017;28;20029;-79
2022/10/07 21:01:17;;;;;;;40.10;26.58;;;12.10;99.90;;;;;;10401315;28;20029;-78
2022/10/07 21:06:18;;;;;;;42.05;25.13;;;12.10;99.90;;;;;;10401398;28;20485;-79
2022/10/07 21:11:18;;;;;;;39.70;25.63;;;12.00;99.90;;;;;;10393547;28;20044;-78
2022/10/07 21:16:19;;;;;;;46.13;25.45;;;12.00;99.90;;;;;;10404330;28;20078;-78
2022/10/07 21:21:21;;;;;;;42.10;26.10;;;11.90;99.90;;;;;;10408722;28;20037;-79
2022/10/07 21:26:22;;;;;;;45.30;28.27;;;11.80;99.90;;;;;;10410265;28;20030;-82
2022/10/07 21:31:22;;;;;;;47.13;29.27;;;11.80;99.90;;;;;;10409495;28;20397;-81
2022/10/07 21:36:24;;;;;;;51.22;30.92;;;11.70;99.90;;;;;;10407767;28;20057;-81
2022/10/07 21:41:29;;;;;;;57.08;34.08;;;11.70;99.90;;;;;;10410018;28;20035;-80
2022/10/07 21:46:33;;;;;;;65.97;36.10;;;11.60;99.90;;;;;;10407641;28;20783;-79
2022/10/07 21:51:34;;;;;;;56.65;34.80;;;11.60;99.90;;;;;;10409614;28;20668;-80
2022/10/07 21:56:35;;;;;;;52.35;30.33;;;11.60;99.90;;;;;;10408261;28;20032;-79
2022/10/07 22:01:36;;;;;;;55.50;33.78;;;11.60;99.90;;;;;;10404547;28;20112;-79
2022/10/07 22:11:56;;;;;;;64.45;38.63;;;11.60;99.90;;;;;;10409574;28;20037;-83
2022/10/07 22:16:57;;;;;;;65.93;37.45;;;11.60;99.90;;;;;;10405285;28;20029;-79
2022/10/07 22:21:57;;;;;;;83.68;43.90;;;11.60;99.90;;;;;;10408376;28;20041;-79
2022/10/07 22:26:58;;;;;;;61.95;36.97;;;11.60;99.90;;;;;;10404189;28;20230;-79
2022/10/07 22:31:59;;;;;;;63.00;40.03;;;11.60;99.90;;;;;;10392718;28;20037;-79
2022/10/07 22:37:00;;;;;;;75.85;42.58;;;11.50;99.90;;;;;;10402268;28;20064;-80
2022/10/07 22:42:02;;;;;;;64.00;39.28;;;11.50;99.90;;;;;;10398029;28;20053;-81
2022/10/07 22:47:03;;;;;;;75.13;42.80;;;11.50;99.90;;;;;;10405242;28;20040;-82
2022/10/07 22:52:03;;;;;;;93.45;48.88;;;11.60;99.90;;;;;;10408315;28;20646;-79
2022/10/07 22:57:06;;;;;;;94.30;50.13;;;11.60;99.90;;;;;;10398984;28;20058;-79
2022/10/07 23:02:08;;;;;;;90.05;47.22;;;11.60;99.90;;;;;;10395189;28;20033;-80
2022/10/07 23:07:09;;;;;;;70.55;43.58;;;11.60;99.90;;;;;;10407889;28;20033;-80
2022/10/07 23:12:10;;;;;;;82.22;45.67;;;11.50;99.90;;;;;;10405369;28;20627;-82
2022/10/07 23:17:10;;;;;;;93.90;49.80;;;11.50;99.90;;;;;;10392419;28;20044;-81
2022/10/07 23:22:11;;;;;;;69.28;42.13;;;11.40;99.90;;;;;;10404507;28;20118;-80
2022/10/07 23:27:13;;;;;;;90.50;48.08;;;11.40;99.90;;;;;;10405577;28;20393;-79
2022/10/07 23:32:14;;;;;;;107.93;51.70;;;11.40;99.90;;;;;;10401090;28;20033;-80
2022/10/07 23:37:15;;;;;;;74.50;45.10;;;11.30;99.90;;;;;;10404143;28;20050;-79
2022/10/07 23:42:15;;;;;;;113.72;52.67;;;11.30;99.90;;;;;;10402293;28;20059;-79
2022/10/07 23:47:16;;;;;;;119.70;52.03;;;11.30;99.90;;;;;;10403050;28;20044;-79
2022/10/07 23:52:18;;;;;;;66.85;42.45;;;11.20;99.90;;;;;;10404254;28;20033;-80
2022/10/07 23:57:18;;;;;;;123.75;56.22;;;11.20;99.90;;;;;;10404840;28;20431;-81
